Startpagina
METAR-TAF:

METAR-TAF

Vliegvelden :

Oostende, België

Internationale Luchthaven Oostende-Brugge

breedte: 51-12N, lengte: 002-52E, hoogte: 4 m

Actueel weer

Dit bericht is 1 uur en het 17 minuten geleden gemaakt, om 23:20 UTC
Wind 15 kt uit het oostnoordoosten
Temperatuur -1°C
Vochtigheid 64%
Druk 1020 hPa
Zicht 10 km of meer
geen wolken onder 1500 m en geen cumulonimbus

METAR: EBOS 232320Z 07015KT CAVOK M01/M07 Q1020 NOSIG

Tijdstip: 01:37 (00:37 UTC)

Verwachting

Dit bericht is 1 uur en het 37 minuten geleden gemaakt, om 23:00 UTC
Verwachting geldig van 24 om 00 UTC tot 25 om 06 UTC
Wind 12 kt uit het oostnoordoosten
Zicht 10 km of meer
geen wolken onder 1500 m en geen cumulonimbus
Kans 30% :
Tijdelijke
van 24 om 11 UTC tot 24 om 21 UTC
Wind 16 kt uit het oosten met uitschieters tot 28 kt

TAF: EBOS 232300Z 2400/2506 07012KT CAVOK PROB30 TEMPO 2411/2421 08016G28KT

Waarnemingen en weersverwachtingen van meer dan 4000 vliegvelden (METAR en TAF).

De beschikbare stations zijn de gele en rode punten op de kaart.

Ga met uw muis naar het station om de naam te zien.

Klik dan om waarnemingen en weersverwachtingen te zien.

kaart wijzigen: klik op de groene knoppen met een zwart kruis om in te zoomen, op de groene knop met een streepje om uit te zoomen of op de groene pijlen voor aangrenzende kaarten.


METAR-TAF: